Latest Coastal Weather Observations for Low Head

IDV60701

Issued at 6:01 am EST Tuesday 1 September 2015 (issued every 10 minutes, with the page automatically refreshed every 10 minutes)

About coastal observations | Map of coastal stations | Coastal observations for VIC | Marine services | Other Formats
Station Details ID: 091293 Name: LOW HEAD Lat: -41.05 Lon: 146.79 Height: 3.0 m
Data from the previous 72 hours. | See also: Recent months at Low Head
Date/Time
EST
Temp

°C
Wind Pressure Rain
since 9am
mm
Weather Cloud Vis
km
Sea
Height
m
Swell
Dir
 
Speed
knots
Gust
knots
hPa Trend Height
m
Period
s
Dir
01/06:00am 6.4 S 15 16 1015.6 - 0.0 - - - - - - -
01/05:30am 6.3 S 13 16 1015.4 - 0.0 - - - - - - -
01/05:00am 6.8 S 15 17 1015.4 - 0.0 - - - - - - -
01/04:30am 6.7 SSE 14 17 1015.5 - 0.0 - - - - - - -
01/04:00am 6.7 SSE 12 16 1015.5 - 0.0 - - - - - - -
01/03:30am 6.7 SSE 12 16 1015.6 - 0.0 - - - - - - -
01/03:00am 7.2 S 15 17 1015.7 - 0.0 - - - - - - -
01/02:30am 7.3 S 14 17 1015.9 - 0.0 - - - - - - -
01/02:00am 7.6 S 13 16 1016.3 - 0.0 - - - - - - -
01/01:30am 7.7 S 12 15 1016.5 - 0.0 - - - - - - -
01/01:00am 7.8 S 12 14 1016.6 - 0.0 - - - - - - -
01/12:30am 8.0 S 11 13 1016.9 - 0.0 - - - - - - -
01/12:00am 8.2 S 12 14 1016.9 - 0.0 - - - - - - -
 
Date/Time
EST
Temp

°C
Wind Pressure Rain
since 9am
mm
Weather Cloud Vis
km
Sea
Height
m
Swell
Dir
 
Speed
knots
Gust
knots
hPa Trend Height
m
Period
s
Dir
31/11:30pm 8.4 S 13 14 1016.9 - 0.0 - - - - - - -
31/11:00pm 8.8 SSW 12 14 1017.0 - 0.0 - - - - - - -
31/10:30pm 8.6 S 10 11 1017.2 - 0.0 - - - - - - -
31/10:00pm 8.4 SSW 8 9 1017.3 - 0.0 - - - - - - -
31/09:30pm 9.0 SW 7 8 1017.6 - 0.0 - - - - - - -
31/09:00pm 8.7 SW 5 5 1017.8 - 0.0 - - - - - - -
31/08:30pm 9.2 SW 9 11 1017.9 - 0.0 - - - - - - -
31/08:00pm 9.4 WSW 12 15 1017.7 - 0.0 - - - - - - -
31/07:30pm 9.8 WSW 15 17 1017.7 - 0.0 - - - - - - -
31/07:00pm 10.1 W 17 19 1017.5 - 0.0 - - - - - - -
31/06:30pm 10.4 W 15 18 1017.5 - 0.0 - - - - - - -
31/06:00pm 10.6 W 15 17 1017.6 - 0.0 - - - - - - -
31/05:30pm 11.2 W 12 14 1017.4 - 0.0 - - - - - - -
31/05:00pm 12.0 WSW 7 9 1017.4 - 0.0 - - - - - - -
31/04:30pm 13.2 S 7 9 1017.3 - 0.0 - - - - - - -
31/04:00pm 13.2 SSE 7 11 1017.4 - 0.0 - - - - - - -
31/03:30pm 12.8 S 7 9 1017.6 - 0.0 - - - - - - -
31/03:00pm 13.1 SSE 9 12 1017.6 - 0.0 - - - - - - -
31/02:30pm 13.4 SSE 10 12 1017.7 - 0.0 - - - - - - -
31/02:00pm 12.5 S 12 14 1017.8 - 0.0 - - - - - - -
31/01:30pm 12.3 S 14 16 1018.2 - 0.0 - - - - - - -
31/01:00pm 13.2 SSE 14 18 1018.6 - 0.0 - - - - - - -
31/12:30pm 12.3 SSE 13 19 1018.9 - 0.0 - - - - - - -
31/12:00pm 12.1 SE 14 21 1019.4 - 0.0 - - - - - - -
31/11:30am 11.5 SSE 14 21 1019.8 - 0.0 - - - - - - -
31/11:00am 10.8 SSE 18 25 1019.9 - 0.0 - - - - - - -
31/10:30am 10.2 SSE 16 22 1020.1 - 0.0 - - - - - - -
31/10:00am 9.7 SSE 15 22 1020.3 - 0.0 - - - - - - -
31/09:30am 9.1 SSE 15 21 1020.5 - 0.0 - - - - - - -
31/09:00am 8.4 SSE 14 21 1020.7 - 0.0 - - - - - - -
31/08:30am 7.6 SSE 12 16 1020.8 - 0.0 - - - - - - -
31/08:00am 6.8 SSE 9 14 1020.8 - 0.0 - - - - - - -
31/07:30am 6.1 SSE 10 15 1020.7 - 0.0 - - - - - - -
31/07:00am 5.9 SSE 10 15 1020.5 - 0.0 - - - - - - -
31/06:30am 6.2 SSE 13 17 1020.1 - 0.0 - - - - - - -
31/06:00am 6.2 SSE 15 19 1020.1 - 0.0 - - - - - - -
31/05:30am 6.4 SSE 16 20 1020.1 - 0.0 - - - - - - -
31/05:00am 6.6 SSE 16 21 1020.0 - 0.0 - - - - - - -
31/04:30am 6.8 SSE 17 21 1020.2 - 0.0 - - - - - - -
31/04:00am 7.0 S 19 25 1020.2 - 0.0 - - - - - - -
31/03:30am 7.1 SSE 19 25 1020.3 - 0.0 - - - - - - -
31/03:00am 7.0 SSE 17 23 1020.5 - 0.0 - - - - - - -
31/02:30am 7.0 SSE 15 19 1020.9 - 0.0 - - - - - - -
31/02:00am 7.0 SSE 15 20 1021.4 - 0.0 - - - - - - -
31/01:30am 6.7 SSE 13 18 1021.5 - 0.0 - - - - - - -
31/01:00am 6.9 SSE 13 18 1021.8 - 0.0 - - - - - - -
31/12:30am 7.4 SSE 14 19 1021.9 - 0.0 - - - - - - -
31/12:00am 7.7 SSE 17 21 1022.1 - 0.0 - - - - - - -
 
Date/Time
EST
Temp

°C
Wind Pressure Rain
since 9am
mm
Weather Cloud Vis
km
Sea
Height
m
Swell
Dir
 
Speed
knots
Gust
knots
hPa Trend Height
m
Period
s
Dir
30/11:30pm 7.8 SSE 14 21 1022.3 - 0.0 - - - - - - -
30/11:00pm 8.0 SSE 16 23 1022.6 - 0.0 - - - - - - -
30/10:30pm 8.0 SSE 16 23 1022.8 - 0.0 - - - - - - -
30/10:00pm 8.1 SSE 16 24 1022.8 - 0.0 - - - - - - -
30/09:30pm 8.4 SSE 14 19 1022.8 - 0.0 - - - - - - -
30/09:00pm 7.9 SE 9 13 1022.7 - 0.0 - - - - - - -
30/08:30pm 8.4 SSE 12 17 1022.7 - 0.0 - - - - - - -
30/08:00pm 8.8 SSE 16 19 1022.3 - 0.0 - - - - - - -
30/07:30pm 9.3 S 17 20 1022.2 - 0.0 - - - - - - -
30/07:00pm 9.6 S 16 21 1022.0 - 0.0 - - - - - - -
30/06:30pm 10.0 S 17 22 1021.9 - 0.0 - - - - - - -
30/06:00pm 10.6 S 19 22 1021.8 - 0.0 - - - - - - -
30/05:30pm 10.8 SSE 12 17 1021.7 - 0.0 - - - - - - -
30/05:00pm 11.6 S 11 16 1021.5 - 0.0 - - - - - - -
30/04:30pm 11.9 SSE 13 17 1021.5 - 0.0 - - - - - - -
30/04:00pm 12.4 SSE 12 18 1021.6 - 0.0 - - - - - - -
30/03:30pm 12.4 SSE 13 17 1021.6 - 0.0 - - - - - - -
30/03:00pm 12.7 SSE 14 17 1021.5 - 0.0 - - - - - - -
30/02:30pm 12.4 SSE 13 18 1021.6 - 0.0 - - - - - - -
30/02:00pm 12.4 SSE 13 19 1021.6 - 0.0 - - - - - - -
30/01:30pm 12.3 SSE 12 19 1021.8 - 0.0 - - - - - - -
30/01:00pm 12.0 SSE 15 20 1022.1 - 0.0 - - - - - - -
30/12:30pm 11.5 SE 15 21 1022.5 - 0.0 - - - - - - -
30/12:00pm 11.4 SSE 16 22 1022.9 - 0.0 - - - - - - -
30/11:30am 11.1 SSE 17 23 1023.3 - 0.0 - - - - - - -
30/11:00am 10.7 SE 16 22 1023.6 - 0.0 - - - - - - -
30/10:30am 10.1 SE 18 23 1023.8 - 0.0 - - - - - - -
30/10:00am 9.6 SSE 20 30 1023.7 - 0.0 - - - - - - -
30/09:48am 9.2 SSE 20 31 1023.9 - 0.0 - - - - - - -
30/09:30am 9.1 SSE 17 25 1023.9 - 0.0 - - - - - - -
30/09:00am 8.4 SSE 16 21 1023.9 - 0.0 - - - - - - -
30/08:58am 8.4 SSE 15 21 1023.9 - 0.0 - - - - - - -
30/08:30am 7.4 SSW 8 10 1024.1 - 0.0 - - - - - - -
30/08:00am 6.6 SSW 10 13 1024.0 - 0.0 - - - - - - -
30/07:30am 6.1 SSW 11 15 1023.8 - 0.0 - - - - - - -
30/07:00am 5.7 SSW 12 15 1023.4 - 0.0 - - - - - - -
30/06:30am 5.7 SW 12 14 1023.1 - 0.0 - - - - - - -
30/06:00am 6.2 SSW 15 18 1022.8 - 0.0 - - - - - - -
30/05:30am 6.1 SSW 13 16 1022.7 - 0.0 - - - - - - -
30/05:00am 5.8 SSW 13 15 1022.6 - 0.0 - - - - - - -
30/04:30am 5.5 SSW 9 11 1022.6 - 0.0 - - - - - - -
30/04:00am 6.0 SSW 12 14 1022.3 - 0.0 - - - - - - -
30/03:30am 6.1 SSW 13 15 1022.5 - 0.0 - - - - - - -
30/03:00am 6.1 S 15 16 1022.6 - 0.0 - - - - - - -
30/02:30am 6.6 S 13 15 1022.9 - 0.0 - - - - - - -
30/02:00am 6.9 SSW 11 16 1023.1 - 0.0 - - - - - - -
30/01:30am 7.3 S 13 15 1023.4 - 0.0 - - - - - - -
30/01:00am 6.5 SSE 9 11 1023.7 - 0.0 - - - - - - -
30/12:30am 7.3 SSW 9 12 1023.8 - 0.0 - - - - - - -
30/12:00am 7.7 SSW 13 15 1023.7 - 0.0 - - - - - - -
 
Date/Time
EST
Temp

°C
Wind Pressure Rain
since 9am
mm
Weather Cloud Vis
km
Sea
Height
m
Swell
Dir
 
Speed
knots
Gust
knots
hPa Trend Height
m
Period
s
Dir
29/11:30pm 8.2 S 14 17 1023.8 - 0.0 - - - - - - -
29/11:00pm 8.5 SSW 12 14 1024.0 - 0.0 - - - - - - -
29/10:30pm 8.8 S 14 16 1024.0 - 0.0 - - - - - - -
29/10:00pm 9.1 S 15 18 1024.0 - 0.0 - - - - - - -
29/09:30pm 8.9 S 10 15 1023.6 - 0.0 - - - - - - -
29/09:00pm 9.1 S 10 13 1023.6 - 0.0 - - - - - - -
29/08:30pm 9.6 S 12 17 1023.3 - 0.0 - - - - - - -
29/08:00pm 9.6 S 12 16 1022.9 - 0.0 - - - - - - -
29/07:30pm 10.0 S 15 19 1022.6 - 0.0 - - - - - - -
29/07:00pm 10.1 SSE 10 13 1022.1 - 0.0 - - - - - - -
29/06:30pm 10.4 SSE 9 13 1021.7 - 0.0 - - - - - - -
29/06:00pm 10.4 SSE 9 13 1021.2 - 0.0 - - - - - - -
29/05:30pm 10.9 SSE 9 11 1021.0 - 0.0 - - - - - - -
29/05:00pm 11.3 SSE 8 11 1020.6 - 0.0 - - - - - - -
29/04:30pm 11.7 SSE 11 15 1020.2 - 0.0 - - - - - - -
29/04:00pm 12.0 S 9 13 1019.9 - 0.0 - - - - - - -
29/03:30pm 12.4 S 11 13 1019.7 - 0.0 - - - - - - -
29/03:00pm 12.3 S 9 11 1019.5 - 0.0 - - - - - - -
29/02:30pm 12.4 S 12 14 1019.4 - 0.0 - - - - - - -
29/02:00pm 12.4 SSE 10 13 1019.3 - 0.0 - - - - - - -
29/01:30pm 11.8 SSE 6 7 1019.3 - 0.0 - - - - - - -
29/01:00pm 11.0 E 3 5 1019.4 - 0.0 - - - - - - -
29/12:30pm 10.7 CALM 0 0 1019.4 - 0.0 - - - - - - -
29/12:00pm 10.9 W 4 6 1019.8 - 0.0 - - - - - - -
29/11:30am 11.2 WNW 6 8 1019.8 - 0.0 - - - - - - -
29/11:00am 9.3 CALM 0 0 1020.0 - 0.0 - - - - - - -
29/10:30am 8.1 SSE 4 6 1020.1 - 0.0 - - - - - - -
29/10:00am 8.2 SSW 6 11 1020.0 - 0.0 - - - - - - -
29/09:30am 7.7 SSW 6 7 1019.9 - 0.0 - - - - - - -
29/09:00am 7.2 SW 6 7 1019.7 - 0.0 - - - - - - -
29/08:30am 6.4 S 5 6 1019.7 - 0.0 - - - - - - -
29/08:00am 6.0 S 5 5 1019.6 - 0.0 - - - - - - -
29/07:30am 5.8 S 6 7 1019.2 - 0.0 - - - - - - -
29/07:00am 5.1 SSE 7 7 1019.2 - 0.0 - - - - - - -
29/06:30am 5.0 SSE 7 9 1018.9 - 0.0 - - - - - - -

Other Formats:

Comma delimited format used in spreadsheet applications
http://www.bom.gov.au/fwo/IDV60701/IDV60701.95964.axf

JavaScript Object Notation format (JSON) in row-major order
http://www.bom.gov.au/fwo/IDV60701/IDV60701.95964.json